Time;durP1;ratioP1;P1;durP2;ratioP2;P2;SDS_P1;SDS_P2;PMS_P1;PMS_P2;Temp;Humidity;BMP_temperature;BMP_pressure;BME280_temperature;BME280_humidity;BME280_pressure;Samples;Min_cycle;Max_cycle;Signal;HPM_P1;HPM_P2
2023/07/20 00:00:37;;;;;;;1.15;0.75;;;20.20;89.40;;;;;;10325606;28;20391;-64
2023/07/20 00:05:37;;;;;;;1.00;0.77;;;20.20;89.50;;;;;;10324578;28;20035;-64
2023/07/20 00:10:40;;;;;;;0.60;0.60;;;20.10;89.50;;;;;;10321389;28;20434;-64
2023/07/20 00:15:40;;;;;;;0.75;0.68;;;20.10;89.60;;;;;;10321044;28;20034;-63
2023/07/20 00:20:41;;;;;;;1.00;0.82;;;20.10;89.60;;;;;;10323721;28;20022;-63
2023/07/20 00:25:41;;;;;;;0.75;0.70;;;20.10;89.60;;;;;;10318556;28;20563;-64
2023/07/20 00:30:42;;;;;;;0.80;0.70;;;20.10;89.70;;;;;;10317349;28;20027;-63
2023/07/20 00:35:43;;;;;;;1.08;0.65;;;20.00;89.70;;;;;;10320278;28;20081;-63
2023/07/20 00:40:43;;;;;;;1.33;0.63;;;20.00;89.70;;;;;;10320940;28;20040;-64
2023/07/20 00:45:44;;;;;;;1.85;0.60;;;20.00;89.80;;;;;;10321608;28;20050;-64
2023/07/20 00:50:46;;;;;;;0.60;0.60;;;20.00;89.80;;;;;;10319895;28;20031;-64
2023/07/20 00:55:47;;;;;;;0.93;0.70;;;20.00;89.90;;;;;;10316265;28;20608;-64
2023/07/20 01:00:47;;;;;;;0.70;0.60;;;20.00;89.80;;;;;;10318770;28;20033;-64
2023/07/20 01:05:55;;;;;;;0.70;0.70;;;19.90;89.90;;;;;;10320380;28;20649;-64
2023/07/20 01:11:10;;;;;;;0.93;0.70;;;19.90;90.00;;;;;;10314296;28;20029;-65
2023/07/20 01:16:10;;;;;;;1.00;0.70;;;19.90;90.00;;;;;;10314802;28;20105;-64
2023/07/20 01:21:18;;;;;;;1.42;0.63;;;19.90;90.00;;;;;;10318868;28;20026;-64
2023/07/20 01:26:48;;;;;;;1.00;0.77;;;19.90;90.00;;;;;;10315891;28;20298;-63
2023/07/20 01:31:53;;;;;;;1.23;0.60;;;19.80;90.00;;;;;;10315360;28;20289;-63
2023/07/20 01:36:55;;;;;;;1.02;0.73;;;19.80;90.00;;;;;;10319453;28;20105;-64
2023/07/20 01:41:57;;;;;;;0.80;0.60;;;19.80;90.00;;;;;;10312217;28;20211;-63
2023/07/20 01:46:58;;;;;;;0.80;0.77;;;19.80;90.00;;;;;;10316896;28;20030;-64
2023/07/20 01:51:59;;;;;;;1.10;0.70;;;19.80;90.10;;;;;;10313047;28;20259;-64
2023/07/20 01:56:59;;;;;;;0.80;0.70;;;19.80;90.30;;;;;;10316331;28;20026;-63
2023/07/20 02:02:00;;;;;;;0.90;0.43;;;19.70;90.10;;;;;;10315863;28;20048;-63
2023/07/20 02:07:01;;;;;;;1.00;0.60;;;19.70;90.10;;;;;;10318769;28;20018;-64
2023/07/20 02:12:01;;;;;;;0.68;0.55;;;19.60;90.10;;;;;;10318885;28;20076;-65
2023/07/20 02:17:02;;;;;;;0.82;0.50;;;19.70;90.10;;;;;;10309373;28;20032;-64
2023/07/20 02:22:03;;;;;;;0.63;0.57;;;19.60;90.10;;;;;;10319024;28;20034;-64
2023/07/20 02:27:04;;;;;;;1.10;0.55;;;19.60;90.10;;;;;;10318752;28;20398;-64
2023/07/20 02:32:05;;;;;;;0.90;0.70;;;19.60;90.10;;;;;;10314654;28;20033;-63
2023/07/20 02:37:06;;;;;;;0.68;0.50;;;19.50;90.10;;;;;;10313409;28;20030;-64
2023/07/20 02:42:06;;;;;;;0.50;0.50;;;19.50;90.10;;;;;;10313782;28;20033;-64
2023/07/20 02:47:07;;;;;;;0.40;0.40;;;19.50;90.10;;;;;;10311428;28;20105;-64
2023/07/20 02:52:08;;;;;;;1.42;0.50;;;19.50;90.10;;;;;;10312260;28;20026;-64
2023/07/20 02:57:08;;;;;;;0.52;0.52;;;19.50;90.10;;;;;;10311381;28;20026;-64
2023/07/20 03:02:09;;;;;;;1.33;0.77;;;19.40;90.40;;;;;;10310959;28;20026;-64
2023/07/20 03:07:10;;;;;;;0.73;0.60;;;19.40;90.10;;;;;;10315064;28;20014;-63
2023/07/20 03:12:10;;;;;;;0.77;0.70;;;19.40;90.10;;;;;;10313909;28;20513;-64
2023/07/20 03:17:11;;;;;;;0.95;0.88;;;19.40;90.10;;;;;;10324812;28;20084;-64
2023/07/20 03:22:12;;;;;;;1.08;0.65;;;19.30;90.10;;;;;;10320715;28;20034;-64
2023/07/20 03:27:12;;;;;;;0.85;0.70;;;19.30;90.10;;;;;;10318312;28;20208;-63
2023/07/20 03:32:13;;;;;;;1.40;0.80;;;19.30;90.10;;;;;;10317677;28;20026;-64
2023/07/20 03:37:14;;;;;;;1.30;0.60;;;19.30;90.10;;;;;;10322033;28;20033;-64
2023/07/20 03:42:14;;;;;;;0.77;0.70;;;19.30;90.10;;;;;;10319009;28;20041;-64
2023/07/20 03:47:15;;;;;;;0.73;0.70;;;19.20;90.00;;;;;;10319871;28;20023;-65
2023/07/20 03:52:15;;;;;;;0.88;0.77;;;19.20;90.00;;;;;;10319980;28;20010;-64
2023/07/20 03:57:16;;;;;;;0.93;0.60;;;19.20;90.00;;;;;;10319879;28;20580;-64
2023/07/20 04:02:17;;;;;;;0.82;0.73;;;19.20;90.00;;;;;;10319629;28;20026;-64
2023/07/20 04:07:17;;;;;;;1.48;0.60;;;19.10;90.00;;;;;;10323268;28;20106;-64
2023/07/20 04:12:18;;;;;;;1.77;0.70;;;19.10;90.00;;;;;;10322700;28;20053;-63
2023/07/20 04:17:19;;;;;;;1.70;1.10;;;19.10;89.90;;;;;;10327605;28;20030;-64
2023/07/20 04:22:20;;;;;;;0.60;0.60;;;19.10;89.90;;;;;;10323594;28;20026;-64
2023/07/20 04:27:20;;;;;;;1.02;0.75;;;19.10;89.80;;;;;;10326825;28;20387;-63
2023/07/20 04:32:21;;;;;;;0.85;0.75;;;19.00;89.70;;;;;;10314176;28;20313;-63
2023/07/20 04:37:21;;;;;;;1.52;0.95;;;19.00;89.70;;;;;;10330809;28;20022;-64
2023/07/20 04:42:22;;;;;;;0.90;0.77;;;19.00;89.70;;;;;;10335759;28;20030;-63
2023/07/20 04:47:23;;;;;;;0.93;0.73;;;19.00;89.70;;;;;;10320401;28;20045;-64
2023/07/20 04:52:24;;;;;;;1.02;0.70;;;19.00;89.70;;;;;;10324493;28;20022;-63
2023/07/20 04:57:24;;;;;;;1.00;0.80;;;19.00;89.70;;;;;;10328329;28;20029;-64
2023/07/20 05:02:25;;;;;;;2.15;0.80;;;19.00;89.60;;;;;;10325028;28;20018;-64
2023/07/20 05:07:26;;;;;;;1.00;0.90;;;18.90;89.50;;;;;;10331018;28;20121;-64
2023/07/20 05:12:26;;;;;;;1.13;0.70;;;18.90;89.50;;;;;;10321603;28;20034;-64
2023/07/20 05:17:27;;;;;;;0.65;0.60;;;18.90;89.60;;;;;;10328396;28;20653;-64
2023/07/20 05:22:28;;;;;;;0.75;0.63;;;18.90;89.50;;;;;;10320145;28;20398;-63
2023/07/20 05:27:28;;;;;;;0.90;0.70;;;18.90;89.50;;;;;;10327581;28;20025;-64
2023/07/20 05:32:29;;;;;;;1.50;0.80;;;18.90;89.50;;;;;;10322510;28;20491;-64
2023/07/20 05:37:30;;;;;;;1.77;0.80;;;18.90;89.40;;;;;;10327465;28;20304;-64
2023/07/20 05:42:30;;;;;;;1.83;0.88;;;19.00;89.50;;;;;;10331823;28;20482;-64
2023/07/20 05:47:32;;;;;;;0.65;0.65;;;18.90;89.40;;;;;;10324502;28;20014;-63
2023/07/20 05:52:32;;;;;;;1.33;0.88;;;18.90;89.40;;;;;;10321405;28;20081;-64
2023/07/20 05:57:33;;;;;;;1.48;0.90;;;18.90;89.40;;;;;;10317996;28;20041;-63
2023/07/20 06:02:34;;;;;;;1.00;0.80;;;18.80;89.40;;;;;;10298096;28;20110;-64
2023/07/20 06:07:35;;;;;;;1.90;0.80;;;18.90;89.40;;;;;;10303186;28;20034;-65
2023/07/20 06:12:36;;;;;;;0.90;0.80;;;18.80;89.40;;;;;;10320718;28;20023;-64
2023/07/20 06:17:37;;;;;;;1.83;0.90;;;18.90;89.50;;;;;;10322385;28;20034;-63
2023/07/20 06:22:37;;;;;;;0.80;0.80;;;18.90;89.50;;;;;;10325033;28;20033;-63
2023/07/20 06:27:38;;;;;;;1.10;0.60;;;18.90;89.40;;;;;;10324081;28;20506;-64
2023/07/20 06:32:39;;;;;;;1.02;0.70;;;18.90;89.40;;;;;;10321661;28;20212;-64
2023/07/20 06:37:39;;;;;;;1.10;0.88;;;18.90;89.40;;;;;;10320625;28;20034;-63
2023/07/20 06:42:41;;;;;;;0.60;0.60;;;18.90;89.30;;;;;;10319949;28;20042;-64
2023/07/20 06:47:42;;;;;;;0.77;0.77;;;19.00;89.30;;;;;;10306030;28;20049;-64
2023/07/20 06:52:43;;;;;;;0.73;0.60;;;19.00;89.30;;;;;;10323821;28;20022;-63
2023/07/20 06:57:43;;;;;;;1.85;0.70;;;19.00;89.20;;;;;;10319015;28;20162;-63
2023/07/20 07:02:44;;;;;;;1.52;0.70;;;19.00;89.30;;;;;;10304159;28;20031;-63
2023/07/20 07:07:44;;;;;;;1.00;0.70;;;19.00;89.20;;;;;;10319472;28;20129;-65
2023/07/20 07:12:45;;;;;;;0.82;0.63;;;19.00;89.20;;;;;;10313163;28;20044;-65
2023/07/20 07:17:46;;;;;;;1.33;0.68;;;19.00;89.10;;;;;;10304714;28;20039;-65
2023/07/20 07:22:47;;;;;;;0.80;0.80;;;19.00;89.20;;;;;;10327509;28;20038;-64
2023/07/20 07:27:48;;;;;;;1.10;0.70;;;19.10;89.30;;;;;;10330553;28;20386;-65
2023/07/20 07:32:49;;;;;;;4.07;0.90;;;19.00;89.20;;;;;;10321273;28;20048;-65
2023/07/20 07:37:49;;;;;;;0.90;0.75;;;19.10;89.10;;;;;;10313530;28;20505;-64
2023/07/20 07:42:50;;;;;;;0.80;0.70;;;19.20;89.10;;;;;;10322335;28;20510;-64
2023/07/20 07:47:50;;;;;;;0.77;0.60;;;19.20;89.00;;;;;;10315300;28;20019;-64
2023/07/20 07:52:51;;;;;;;0.75;0.75;;;19.20;89.00;;;;;;10327896;28;20034;-65
2023/07/20 07:57:52;;;;;;;1.77;0.90;;;19.30;88.90;;;;;;10318992;28;20354;-65
2023/07/20 08:02:53;;;;;;;1.05;0.80;;;19.30;88.90;;;;;;10311451;28;20026;-65
2023/07/20 08:07:53;;;;;;;1.23;0.70;;;19.30;88.90;;;;;;10326583;28;20437;-64
2023/07/20 08:12:54;;;;;;;1.33;0.75;;;19.30;89.00;;;;;;10317541;28;20379;-64
2023/07/20 08:17:55;;;;;;;1.15;0.70;;;19.30;89.00;;;;;;10331634;28;20045;-64
2023/07/20 08:22:56;;;;;;;0.60;0.60;;;19.30;88.80;;;;;;10328773;28;20277;-64
2023/07/20 08:27:56;;;;;;;0.70;0.60;;;19.40;88.80;;;;;;10320410;28;20080;-64
2023/07/20 08:32:57;;;;;;;2.15;0.80;;;19.40;88.70;;;;;;10332517;28;20101;-64
2023/07/20 08:37:57;;;;;;;0.82;0.77;;;19.40;88.70;;;;;;10322619;28;20227;-64
2023/07/20 08:43:02;;;;;;;2.05;0.90;;;19.40;88.60;;;;;;10333423;28;20030;-65
2023/07/20 08:48:05;;;;;;;1.45;0.98;;;19.50;88.60;;;;;;10319538;28;20077;-64
2023/07/20 08:53:06;;;;;;;0.75;0.75;;;19.50;88.50;;;;;;10327156;28;20418;-64
2023/07/20 08:58:10;;;;;;;0.68;0.55;;;19.60;88.50;;;;;;10313191;28;20422;-64
2023/07/20 09:03:12;;;;;;;1.10;1.00;;;19.60;88.40;;;;;;10317958;28;20143;-64
2023/07/20 09:08:12;;;;;;;1.25;0.60;;;19.60;88.40;;;;;;10321670;28;20030;-64
2023/07/20 09:13:17;;;;;;;1.33;0.95;;;19.60;88.40;;;;;;10319675;28;20027;-66
2023/07/20 09:18:43;;;;;;;1.95;0.75;;;19.50;88.30;;;;;;10325354;28;20305;-64
2023/07/20 09:23:44;;;;;;;0.80;0.80;;;19.60;88.20;;;;;;10322827;28;20625;-63
2023/07/20 09:28:50;;;;;;;0.88;0.80;;;19.60;88.40;;;;;;10315636;28;20031;-64
2023/07/20 09:33:53;;;;;;;0.82;0.70;;;19.60;88.20;;;;;;10326013;28;20038;-64
2023/07/20 09:38:54;;;;;;;0.80;0.60;;;19.60;88.10;;;;;;10319122;28;20026;-64
2023/07/20 09:43:56;;;;;;;1.27;0.60;;;19.60;88.00;;;;;;10320553;28;20050;-64
2023/07/20 09:48:57;;;;;;;0.80;0.75;;;19.70;87.90;;;;;;10315333;28;20014;-64
2023/07/20 09:53:58;;;;;;;1.33;0.70;;;19.80;87.70;;;;;;10319900;28;20109;-63
2023/07/20 09:58:59;;;;;;;0.88;0.68;;;19.80;87.50;;;;;;10329165;28;20045;-64
2023/07/20 10:04:03;;;;;;;1.63;0.90;;;19.80;87.40;;;;;;10319964;28;20398;-66
2023/07/20 10:09:06;;;;;;;1.00;0.68;;;19.80;87.40;;;;;;10319840;28;20181;-64
2023/07/20 10:14:11;;;;;;;1.83;0.68;;;19.80;87.50;;;;;;10319786;28;20393;-64
2023/07/20 10:19:24;;;;;;;0.88;0.70;;;19.80;87.70;;;;;;10319923;28;20030;-64
2023/07/20 10:24:26;;;;;;;1.00;0.60;;;19.70;87.70;;;;;;10323088;28;20493;-63
2023/07/20 10:29:28;;;;;;;3.05;1.00;;;19.70;87.80;;;;;;10322245;28;20142;-64
2023/07/20 10:34:29;;;;;;;1.75;0.70;;;19.80;87.80;;;;;;10323866;28;20175;-64
2023/07/20 10:39:33;;;;;;;1.13;0.60;;;19.80;87.80;;;;;;10316524;28;20026;-64
2023/07/20 10:44:36;;;;;;;0.80;0.80;;;19.80;87.70;;;;;;10316938;28;20072;-64
2023/07/20 10:50:00;;;;;;;0.95;0.80;;;19.90;87.70;;;;;;10313313;28;20049;-65
2023/07/20 10:55:11;;;;;;;1.00;0.88;;;19.90;87.50;;;;;;10319479;28;20105;-65
2023/07/20 11:00:14;;;;;;;1.35;0.82;;;20.00;87.40;;;;;;10318432;28;20027;-64
2023/07/20 11:05:38;;;;;;;4.15;0.85;;;20.00;87.20;;;;;;10312711;28;20061;-67
2023/07/20 11:10:39;;;;;;;1.33;1.02;;;20.20;86.80;;;;;;10319241;28;20026;-67
2023/07/20 11:15:58;;;;;;;1.40;1.15;;;20.30;86.60;;;;;;10317200;28;20041;-67
2023/07/20 11:20:59;;;;;;;1.52;0.90;;;20.40;86.20;;;;;;10320455;28;20031;-69
2023/07/20 11:26:00;;;;;;;1.35;0.95;;;20.20;86.20;;;;;;10315239;28;20081;-68
2023/07/20 11:31:00;;;;;;;2.70;1.05;;;20.30;86.80;;;;;;10320550;28;20030;-67
2023/07/20 11:36:01;;;;;;;0.88;0.75;;;20.30;86.60;;;;;;10326095;28;20272;-64
2023/07/20 11:41:05;;;;;;;2.17;1.00;;;20.20;86.70;;;;;;10323572;28;20101;-65
2023/07/20 11:46:06;;;;;;;3.80;1.33;;;20.20;86.90;;;;;;10325311;28;20032;-65
2023/07/20 11:51:14;;;;;;;2.67;0.95;;;20.20;87.00;;;;;;10327072;28;20010;-65
2023/07/20 11:56:14;;;;;;;1.30;0.88;;;20.20;87.00;;;;;;10334135;28;20026;-65
2023/07/20 12:01:17;;;;;;;1.48;0.80;;;20.20;87.10;;;;;;10327322;28;20042;-65
2023/07/20 12:06:18;;;;;;;1.15;0.93;;;20.30;87.10;;;;;;10326338;28;20026;-66
2023/07/20 12:11:35;;;;;;;0.85;0.65;;;20.30;87.00;;;;;;10327662;28;20076;-65
2023/07/20 12:16:40;;;;;;;1.30;0.80;;;20.40;86.70;;;;;;10327574;28;20092;-66
2023/07/20 12:21:44;;;;;;;1.42;0.80;;;20.50;86.50;;;;;;10323955;28;20026;-65
2023/07/20 12:26:45;;;;;;;2.03;0.88;;;20.60;86.30;;;;;;10322005;28;20018;-65
2023/07/20 12:31:46;;;;;;;1.50;0.88;;;20.60;86.20;;;;;;10327878;28;20040;-65
2023/07/20 12:36:47;;;;;;;0.70;0.70;;;20.70;86.10;;;;;;10325029;28;20026;-64
2023/07/20 12:41:47;;;;;;;2.53;1.00;;;20.70;85.80;;;;;;10326197;28;20399;-65
2023/07/20 12:46:48;;;;;;;1.00;0.80;;;20.90;85.70;;;;;;10322076;28;20030;-66
2023/07/20 12:51:48;;;;;;;0.90;0.70;;;21.00;85.50;;;;;;10321415;28;20097;-66
2023/07/20 12:56:49;;;;;;;0.85;0.70;;;21.00;85.40;;;;;;10321273;28;20487;-65
2023/07/20 13:01:50;;;;;;;1.38;0.93;;;21.10;85.20;;;;;;10317482;28;20502;-65
2023/07/20 13:06:51;;;;;;;1.67;0.93;;;21.10;85.10;;;;;;10325019;28;20104;-65
2023/07/20 13:11:52;;;;;;;0.90;0.82;;;21.20;85.10;;;;;;10321339;28;20019;-65
2023/07/20 13:16:53;;;;;;;1.40;0.70;;;21.20;85.10;;;;;;10322019;28;20038;-65
2023/07/20 13:21:54;;;;;;;0.85;0.60;;;21.20;85.20;;;;;;10313773;28;20030;-65
2023/07/20 13:26:54;;;;;;;0.98;0.70;;;21.30;85.20;;;;;;10323783;28;20018;-64
2023/07/20 13:31:55;;;;;;;1.73;0.73;;;21.30;85.20;;;;;;10321710;28;20418;-65
2023/07/20 13:36:56;;;;;;;1.10;0.65;;;21.40;85.00;;;;;;10317263;28;20022;-65
2023/07/20 13:41:57;;;;;;;1.27;0.90;;;21.50;84.90;;;;;;10322326;28;20390;-64
2023/07/20 13:46:58;;;;;;;1.27;0.70;;;21.60;84.90;;;;;;10320530;28;20030;-65
2023/07/20 13:51:59;;;;;;;0.70;0.70;;;21.70;84.70;;;;;;10321549;28;20034;-65
2023/07/20 13:57:00;;;;;;;2.75;0.93;;;21.80;84.40;;;;;;10317760;28;20274;-64
2023/07/20 14:02:00;;;;;;;1.75;0.60;;;21.90;84.50;;;;;;10318152;28;20023;-65
2023/07/20 14:07:01;;;;;;;0.60;0.60;;;22.00;84.20;;;;;;10316166;28;20026;-65
2023/07/20 14:12:02;;;;;;;1.25;0.70;;;22.10;84.30;;;;;;10316657;28;20023;-65
2023/07/20 14:17:02;;;;;;;0.75;0.60;;;22.10;83.90;;;;;;10316652;28;20034;-65
2023/07/20 14:22:03;;;;;;;0.93;0.82;;;22.20;83.70;;;;;;10314965;28;20026;-65
2023/07/20 14:27:04;;;;;;;4.88;0.70;;;22.30;83.70;;;;;;10316905;28;20053;-65
2023/07/20 14:32:07;;;;;;;1.25;1.00;;;22.40;83.40;;;;;;10319218;28;20014;-64
2023/07/20 14:37:08;;;;;;;2.55;1.45;;;22.40;83.10;;;;;;10316978;28;20525;-64
2023/07/20 14:42:08;;;;;;;2.08;1.80;;;22.60;82.90;;;;;;10313964;28;20027;-65
2023/07/20 14:47:09;;;;;;;1.83;1.70;;;22.70;82.80;;;;;;10313118;28;20030;-65
2023/07/20 14:52:09;;;;;;;1.63;1.50;;;22.80;82.50;;;;;;10317865;28;20349;-65
2023/07/20 14:57:13;;;;;;;2.08;1.88;;;23.00;82.30;;;;;;10318990;28;20045;-65
2023/07/20 15:02:14;;;;;;;2.33;2.13;;;23.10;82.10;;;;;;10308528;28;20031;-65
2023/07/20 15:07:21;;;;;;;2.60;2.13;;;23.20;81.90;;;;;;10316170;28;20040;-64
2023/07/20 15:12:22;;;;;;;1.50;1.23;;;23.10;81.90;;;;;;10323422;28;20278;-67
2023/07/20 15:17:23;;;;;;;2.30;1.02;;;23.00;80.80;;;;;;10326841;28;20049;-67
2023/07/20 15:22:23;;;;;;;1.50;1.00;;;22.90;79.80;;;;;;10330593;28;20023;-65
2023/07/20 15:27:24;;;;;;;1.35;0.80;;;22.80;79.20;;;;;;10333357;28;20039;-65
2023/07/20 15:32:25;;;;;;;1.00;0.80;;;22.90;78.20;;;;;;10327390;28;20219;-67
2023/07/20 15:37:26;;;;;;;1.30;0.90;;;23.00;77.80;;;;;;10322976;28;20030;-68
2023/07/20 15:42:27;;;;;;;2.05;0.90;;;22.90;77.30;;;;;;10321041;28;20029;-68
2023/07/20 15:47:27;;;;;;;2.00;1.00;;;22.90;77.10;;;;;;10327029;28;20037;-68
2023/07/20 15:52:28;;;;;;;0.60;0.60;;;23.20;76.90;;;;;;10331715;28;20027;-67
2023/07/20 15:57:28;;;;;;;1.67;0.90;;;23.50;76.30;;;;;;10327087;28;20096;-68
2023/07/20 16:02:29;;;;;;;1.00;0.60;;;23.20;76.30;;;;;;10326230;28;20360;-67
2023/07/20 16:07:31;;;;;;;1.42;0.80;;;23.00;75.90;;;;;;10326824;28;20093;-67
2023/07/20 16:12:31;;;;;;;2.38;0.80;;;22.70;76.70;;;;;;10330282;28;20023;-67
2023/07/20 16:17:32;;;;;;;1.95;0.88;;;22.50;77.30;;;;;;10316448;28;20497;-67
2023/07/20 16:22:32;;;;;;;2.38;1.05;;;22.40;77.60;;;;;;10320460;28;20400;-67
2023/07/20 16:27:33;;;;;;;0.73;0.73;;;22.10;77.40;;;;;;10324456;28;20174;-67
2023/07/20 16:32:34;;;;;;;1.40;1.02;;;21.90;77.90;;;;;;10323840;28;20073;-67
2023/07/20 16:37:35;;;;;;;3.28;1.13;;;21.90;77.80;;;;;;10320585;28;20025;-67
2023/07/20 16:42:35;;;;;;;4.20;1.20;;;21.70;77.40;;;;;;10321832;28;20262;-67
2023/07/20 16:47:36;;;;;;;2.20;1.10;;;21.60;77.40;;;;;;10323677;28;20163;-69
2023/07/20 16:52:37;;;;;;;4.88;1.13;;;21.50;77.40;;;;;;10320616;28;20092;-67
2023/07/20 16:57:38;;;;;;;1.20;1.00;;;21.60;77.40;;;;;;10316703;28;20042;-67
2023/07/20 17:02:38;;;;;;;1.10;1.00;;;21.60;76.90;;;;;;10323868;28;20030;-67
2023/07/20 17:07:39;;;;;;;2.05;0.90;;;21.60;76.50;;;;;;10324102;28;20426;-67
2023/07/20 17:12:40;;;;;;;1.00;0.90;;;21.30;77.00;;;;;;10320455;28;20097;-67
2023/07/20 17:17:41;;;;;;;1.90;0.90;;;21.20;77.20;;;;;;10318645;28;20124;-68
2023/07/20 17:22:42;;;;;;;1.45;1.10;;;21.10;76.40;;;;;;10319417;28;20550;-67
2023/07/20 17:27:42;;;;;;;2.35;1.08;;;21.10;76.90;;;;;;10323594;28;20040;-68
2023/07/20 17:32:43;;;;;;;1.67;0.90;;;21.10;76.60;;;;;;10321952;28;20408;-68
2023/07/20 17:37:44;;;;;;;1.67;0.80;;;21.00;76.70;;;;;;10320291;28;20041;-68
2023/07/20 17:42:44;;;;;;;1.05;0.95;;;21.00;77.00;;;;;;10325158;28;20077;-69
2023/07/20 17:47:45;;;;;;;1.60;1.10;;;20.80;76.90;;;;;;10322356;28;20105;-69
2023/07/20 17:52:45;;;;;;;1.40;0.85;;;20.80;77.00;;;;;;10322713;28;20367;-69
2023/07/20 17:57:48;;;;;;;1.60;1.00;;;20.80;76.90;;;;;;10319733;28;20033;-68
2023/07/20 18:02:48;;;;;;;1.50;1.00;;;20.80;77.00;;;;;;10315751;28;20116;-64
2023/07/20 18:07:49;;;;;;;2.10;1.00;;;20.80;77.30;;;;;;10303671;28;20034;-64
2023/07/20 18:12:49;;;;;;;4.07;1.00;;;21.00;77.40;;;;;;10311128;28;20463;-63
2023/07/20 18:17:50;;;;;;;3.35;0.80;;;21.10;77.40;;;;;;10316274;28;20609;-65
2023/07/20 18:22:51;;;;;;;1.63;1.10;;;21.20;77.50;;;;;;10313544;28;20570;-65
2023/07/20 18:27:51;;;;;;;2.67;1.10;;;21.30;77.50;;;;;;10314483;28;20188;-66
2023/07/20 18:32:52;;;;;;;2.13;1.13;;;21.40;77.80;;;;;;10319846;28;20597;-65
2023/07/20 18:37:52;;;;;;;2.65;1.23;;;21.40;78.00;;;;;;10318127;28;20113;-65
2023/07/20 18:42:53;;;;;;;1.38;1.17;;;21.40;78.20;;;;;;10317619;28;20038;-65
2023/07/20 18:47:54;;;;;;;3.65;1.20;;;21.40;78.40;;;;;;10313848;28;20022;-65
2023/07/20 18:52:57;;;;;;;5.10;1.30;;;21.40;78.50;;;;;;10322507;28;20023;-65
2023/07/20 18:57:58;;;;;;;5.93;1.80;;;21.40;78.70;;;;;;10316263;28;20065;-66
2023/07/20 19:02:59;;;;;;;2.17;1.40;;;21.50;78.90;;;;;;10311372;28;20038;-65
2023/07/20 19:08:01;;;;;;;4.28;1.60;;;21.40;79.00;;;;;;10304211;28;20434;-66
2023/07/20 19:13:01;;;;;;;1.30;1.20;;;21.40;79.20;;;;;;10316715;28;20030;-65
2023/07/20 19:18:02;;;;;;;1.40;1.30;;;21.40;79.30;;;;;;10320238;28;20027;-65
2023/07/20 19:23:03;;;;;;;1.70;1.50;;;21.40;79.50;;;;;;10318234;28;20037;-66
2023/07/20 19:28:04;;;;;;;1.92;1.70;;;21.40;79.60;;;;;;10320720;28;20108;-66
2023/07/20 19:33:04;;;;;;;3.08;1.73;;;21.40;79.80;;;;;;10316842;28;20038;-66
2023/07/20 19:38:05;;;;;;;2.35;1.70;;;21.30;79.80;;;;;;10312393;28;20026;-66
2023/07/20 19:43:08;;;;;;;2.88;2.00;;;21.30;80.00;;;;;;10318177;28;20049;-65
2023/07/20 19:48:09;;;;;;;2.00;1.63;;;21.20;80.00;;;;;;10316916;28;20101;-66
2023/07/20 19:53:09;;;;;;;2.17;1.80;;;21.20;80.20;;;;;;10316967;28;20026;-66
2023/07/20 19:58:10;;;;;;;4.10;2.20;;;21.20;80.20;;;;;;10320389;28;20108;-65
2023/07/20 20:03:12;;;;;;;2.00;1.75;;;21.20;80.30;;;;;;10323170;28;20038;-65
2023/07/20 20:08:14;;;;;;;2.33;1.80;;;21.20;80.40;;;;;;10317978;28;20026;-66
2023/07/20 20:13:15;;;;;;;2.85;1.98;;;21.10;80.50;;;;;;10319376;28;20077;-65
2023/07/20 20:18:16;;;;;;;2.53;2.15;;;21.10;80.60;;;;;;10318727;28;20089;-66
2023/07/20 20:23:18;;;;;;;2.20;2.00;;;21.10;80.60;;;;;;10320099;28;20060;-66
2023/07/20 20:28:19;;;;;;;2.30;1.98;;;21.10;80.70;;;;;;10325746;28;20176;-66
2023/07/20 20:33:20;;;;;;;2.65;2.15;;;21.00;80.80;;;;;;10323325;28;20048;-66
2023/07/20 20:38:22;;;;;;;5.00;2.70;;;21.00;80.90;;;;;;10319961;28;20022;-65
2023/07/20 20:43:23;;;;;;;3.88;2.58;;;21.00;80.90;;;;;;10316549;28;20403;-65
2023/07/20 20:48:26;;;;;;;2.78;2.20;;;21.00;81.00;;;;;;10317998;28;20033;-65
2023/07/20 20:53:27;;;;;;;2.92;2.47;;;20.90;81.00;;;;;;10318584;28;20049;-66
2023/07/20 20:58:27;;;;;;;3.72;3.00;;;20.90;81.10;;;;;;10322575;28;20019;-65
2023/07/20 21:03:29;;;;;;;3.63;2.53;;;20.80;81.00;;;;;;10318593;28;20018;-65
2023/07/20 21:08:29;;;;;;;2.83;2.53;;;20.80;81.10;;;;;;10320943;28;20535;-66
2023/07/20 21:13:30;;;;;;;3.25;2.35;;;20.80;81.20;;;;;;10319078;28;20094;-66
2023/07/20 21:18:30;;;;;;;3.13;2.45;;;20.80;81.30;;;;;;10319901;28;20500;-70
2023/07/20 21:23:31;;;;;;;2.63;2.17;;;20.70;81.20;;;;;;10315758;28;20125;-65
2023/07/20 21:28:32;;;;;;;4.47;2.55;;;20.70;81.20;;;;;;10313104;28;20540;-66
2023/07/20 21:33:33;;;;;;;3.47;2.80;;;20.70;81.30;;;;;;10320881;28;20498;-66
2023/07/20 21:38:37;;;;;;;3.03;2.40;;;20.60;81.30;;;;;;10317989;28;20031;-66
2023/07/20 21:43:37;;;;;;;3.25;2.20;;;20.60;81.30;;;;;;10314207;28;20034;-65
2023/07/20 21:48:40;;;;;;;2.83;2.50;;;20.60;81.30;;;;;;10316063;28;20026;-66
2023/07/20 21:53:41;;;;;;;3.72;2.50;;;20.50;81.30;;;;;;10326597;28;20309;-66
2023/07/20 21:58:41;;;;;;;2.83;2.30;;;20.50;81.30;;;;;;10317181;28;20423;-65
2023/07/20 22:03:42;;;;;;;4.75;2.50;;;20.50;81.20;;;;;;10317299;28;20122;-66
2023/07/20 22:08:43;;;;;;;4.13;2.50;;;20.40;81.20;;;;;;10320810;28;20390;-66
2023/07/20 22:13:44;;;;;;;2.67;2.30;;;20.40;81.20;;;;;;10322344;28;20019;-65
2023/07/20 22:18:48;;;;;;;3.05;2.33;;;20.40;81.30;;;;;;10319406;28;20045;-66
2023/07/20 22:23:49;;;;;;;2.67;2.35;;;20.30;81.20;;;;;;10319812;28;20677;-65
2023/07/20 22:28:50;;;;;;;2.70;2.20;;;20.30;81.30;;;;;;10320990;28;20050;-66
2023/07/20 22:33:52;;;;;;;3.38;2.30;;;20.30;81.30;;;;;;10315989;28;20581;-65
2023/07/20 22:38:54;;;;;;;3.15;2.42;;;20.20;81.30;;;;;;10320965;28;20084;-65
2023/07/20 22:43:54;;;;;;;3.13;2.83;;;20.20;81.30;;;;;;10325235;28;20030;-65
2023/07/20 22:48:55;;;;;;;3.72;2.50;;;20.20;81.30;;;;;;10315523;28;20450;-65
2023/07/20 22:53:55;;;;;;;3.28;2.63;;;20.20;81.40;;;;;;10313565;28;20022;-66
2023/07/20 22:58:56;;;;;;;3.83;3.28;;;20.10;81.30;;;;;;10317396;28;20030;-65
2023/07/20 23:03:59;;;;;;;4.30;3.15;;;20.10;81.30;;;;;;10319183;28;20557;-66
2023/07/20 23:09:00;;;;;;;3.30;2.33;;;20.10;81.40;;;;;;10319055;28;20542;-66
2023/07/20 23:14:00;;;;;;;3.10;2.78;;;20.00;81.40;;;;;;10313679;28;20037;-65
2023/07/20 23:19:01;;;;;;;3.70;2.45;;;20.00;81.40;;;;;;10311588;28;20035;-65
2023/07/20 23:24:02;;;;;;;3.65;2.80;;;20.00;81.40;;;;;;10314824;28;20018;-66
2023/07/20 23:29:03;;;;;;;3.67;2.85;;;20.00;81.50;;;;;;10318789;28;20026;-65
2023/07/20 23:34:03;;;;;;;3.28;2.70;;;20.00;81.50;;;;;;10321406;28;20046;-65
2023/07/20 23:39:04;;;;;;;3.33;2.40;;;19.90;81.50;;;;;;10324149;28;20117;-65
2023/07/20 23:44:06;;;;;;;2.50;2.30;;;19.90;81.60;;;;;;10324861;28;20721;-65
2023/07/20 23:49:08;;;;;;;3.60;2.28;;;19.90;81.70;;;;;;10325760;28;20010;-66
2023/07/20 23:54:09;;;;;;;3.00;2.50;;;19.90;81.70;;;;;;10326482;28;20070;-66
2023/07/20 23:59:13;;;;;;;2.97;2.10;;;19.80;81.70;;;;;;10321398;28;20055;-66
